Time;durP1;ratioP1;P1;durP2;ratioP2;P2;SDS_P1;SDS_P2;PMS_P1;PMS_P2;Temp;Humidity;BMP_temperature;BMP_pressure;BME280_temperature;BME280_humidity;BME280_pressure;Samples;Min_cycle;Max_cycle;Signal;HPM_P1;HPM_P2
2022/06/14 00:01:24;;;;;;;17.50;7.97;;;;;;;24.13;62.02;100260.00;5094602;28;20085;-83
2022/06/14 00:03:50;;;;;;;9.98;6.65;;;;;;;24.14;61.88;100264.44;5095503;28;20035;-83
2022/06/14 00:06:19;;;;;;;11.05;6.68;;;;;;;24.08;61.51;100237.81;5094681;28;20401;-84
2022/06/14 00:08:45;;;;;;;11.13;6.22;;;;;;;24.19;61.62;100245.38;5096726;28;20481;-82
2022/06/14 00:11:20;;;;;;;17.23;6.95;;;;;;;24.20;61.61;100252.56;5096263;28;20028;-82
2022/06/14 00:13:46;;;;;;;16.02;6.20;;;;;;;24.21;61.46;100254.25;5095960;28;20031;-83
2022/06/14 00:16:13;;;;;;;11.73;7.28;;;;;;;24.17;61.38;100253.84;5095328;28;20031;-83
2022/06/14 00:18:39;;;;;;;8.57;6.40;;;;;;;24.23;61.50;100269.47;5096726;28;20036;-82
2022/06/14 00:21:05;;;;;;;7.65;6.40;;;;;;;24.08;61.60;100243.31;5095109;28;20024;-82
2022/06/14 00:23:31;;;;;;;8.35;5.90;;;;;;;24.12;61.56;100244.59;5094615;28;20027;-82
2022/06/14 00:25:58;;;;;;;9.57;6.35;;;;;;;24.15;61.50;100257.91;5094552;28;20462;-83
2022/06/14 00:28:26;;;;;;;9.15;6.47;;;;;;;24.19;61.56;100251.72;5095402;28;20028;-82
2022/06/14 00:30:55;;;;;;;11.05;7.15;;;;;;;24.13;62.00;100249.84;5095935;28;20111;-83
2022/06/14 00:33:21;;;;;;;10.88;6.65;;;;;;;24.23;61.18;100246.63;5096228;28;20434;-83
2022/06/14 00:35:47;;;;;;;20.35;8.35;;;;;;;24.28;61.30;100250.38;5096040;28;20127;-84
2022/06/14 00:38:14;;;;;;;10.10;7.30;;;;;;;24.15;61.31;100242.25;5096008;28;20031;-82
2022/06/14 00:40:48;;;;;;;11.80;7.05;;;;;;;24.16;61.86;100245.81;5095040;28;20057;-83
2022/06/14 00:43:16;;;;;;;9.57;6.60;;;;;;;24.15;62.31;100245.00;5096013;28;20020;-84
2022/06/14 00:45:41;;;;;;;9.63;7.10;;;;;;;24.16;62.83;100252.16;5096272;28;20485;-83
2022/06/14 00:48:09;;;;;;;8.93;6.50;;;;;;;24.13;62.91;100252.59;5094985;28;20031;-83
2022/06/14 00:50:43;;;;;;;11.23;7.38;;;;;;;24.17;63.21;100258.50;5095318;28;20039;-83
2022/06/14 00:53:36;;;;;;;12.05;7.05;;;;;;;24.05;63.33;100241.00;5094305;28;20101;-83
2022/06/14 00:56:16;;;;;;;18.52;7.18;;;;;;;24.07;63.49;100247.13;5095195;28;20020;-82
2022/06/14 00:58:46;;;;;;;14.80;7.57;;;;;;;24.05;63.14;100246.50;5095009;28;20023;-83
2022/06/14 01:01:19;;;;;;;10.30;7.20;;;;;;;24.08;63.31;100243.31;5094358;28;20048;-83
2022/06/14 01:03:53;;;;;;;14.77;7.45;;;;;;;24.02;63.47;100249.69;5094309;28;20465;-83
2022/06/14 01:06:40;;;;;;;13.05;7.53;;;;;;;24.05;63.18;100249.25;5095052;28;20421;-82
2022/06/14 01:09:09;;;;;;;10.70;7.05;;;;;;;23.98;62.90;100240.19;5094387;28;20823;-83
2022/06/14 01:11:41;;;;;;;20.30;7.07;;;;;;;24.04;63.19;100242.06;5094114;28;20035;-83
2022/06/14 01:14:10;;;;;;;12.18;6.88;;;;;;;24.04;62.85;100233.81;5092516;28;20064;-84
2022/06/14 01:16:37;;;;;;;7.85;7.03;;;;;;;24.07;62.84;100241.63;5094568;28;20116;-83
2022/06/14 01:19:08;;;;;;;14.05;6.97;;;;;;;24.09;62.31;100231.28;5093120;28;20406;-83
2022/06/14 01:21:33;;;;;;;9.50;6.25;;;;;;;24.05;62.00;100232.78;5094153;28;20027;-82
2022/06/14 01:23:59;;;;;;;10.73;6.70;;;;;;;24.12;61.80;100241.84;5094480;28;20031;-83
2022/06/14 01:26:27;;;;;;;12.45;6.40;;;;;;;24.11;61.54;100231.91;5094547;28;20055;-82
2022/06/14 01:29:01;;;;;;;10.90;6.75;;;;;;;24.10;61.24;100246.66;5093907;28;20157;-82
2022/06/14 01:31:30;;;;;;;12.20;6.75;;;;;;;24.12;61.26;100239.09;5094161;28;20027;-82
2022/06/14 01:34:01;;;;;;;11.10;6.90;;;;;;;24.14;61.32;100239.72;5094120;28;20023;-83
2022/06/14 01:36:38;;;;;;;15.50;6.93;;;;;;;24.13;61.00;100224.28;5093875;28;20119;-83
2022/06/14 01:39:08;;;;;;;8.82;5.93;;;;;;;24.20;60.62;100239.66;5093709;28;20047;-83
2022/06/14 01:41:43;;;;;;;9.55;7.70;;;;;;;24.20;60.92;100236.91;5093876;28;20481;-83
2022/06/14 01:44:20;;;;;;;8.95;6.90;;;;;;;24.22;60.53;100239.44;5093527;28;20027;-83
2022/06/14 01:46:46;;;;;;;12.27;6.75;;;;;;;24.27;60.56;100247.88;5094025;28;20051;-83
2022/06/14 01:52:17;;;;;;;11.90;6.97;;;;;;;24.21;60.95;100237.78;5094737;28;20039;-83
2022/06/14 01:55:25;;;;;;;16.58;7.35;;;;;;;24.19;60.89;100243.47;5094534;28;20020;-83
2022/06/14 01:58:16;;;;;;;14.98;7.70;;;;;;;24.21;61.62;100246.00;5093917;28;20418;-83
2022/06/14 02:01:06;;;;;;;10.60;6.80;;;;;;;24.21;61.57;100265.25;5093954;28;20405;-83
2022/06/14 02:06:38;;;;;;;8.30;7.28;;;;;;;24.18;62.12;100254.69;5093224;28;20047;-82
2022/06/14 02:09:17;;;;;;;9.82;7.38;;;;;;;24.12;62.68;100253.69;5094654;28;20032;-82
2022/06/14 02:11:43;;;;;;;12.10;7.57;;;;;;;24.05;63.43;100247.34;5094529;28;20509;-82
2022/06/14 02:14:29;;;;;;;15.63;7.35;;;;;;;24.08;63.71;100259.81;5093541;28;20106;-83
2022/06/14 02:17:03;;;;;;;11.75;7.72;;;;;;;24.08;63.80;100259.81;5094020;28;20020;-83
2022/06/14 02:19:39;;;;;;;14.25;8.05;;;;;;;24.04;64.37;100262.16;5114454;28;20153;-82
2022/06/14 02:22:19;;;;;;;13.25;8.13;;;;;;;24.01;64.31;100259.00;5114212;28;20020;-82
2022/06/14 02:24:56;;;;;;;13.50;8.30;;;;;;;23.94;63.98;100260.97;5114955;28;20050;-82
2022/06/14 02:27:36;;;;;;;16.98;8.98;;;;;;;23.99;64.01;100261.97;5118257;28;20016;-83
2022/06/14 02:30:10;;;;;;;11.70;7.55;;;;;;;23.96;63.85;100261.56;5117919;28;20015;-83
2022/06/14 02:32:42;;;;;;;18.67;7.68;;;;;;;24.01;63.47;100264.47;5118105;28;20089;-82
2022/06/14 02:35:16;;;;;;;12.18;8.70;;;;;;;23.97;63.17;100263.25;5117572;28;20024;-83
2022/06/14 02:38:08;;;;;;;10.60;7.32;;;;;;;23.90;63.18;100251.47;5117416;28;20035;-83
2022/06/14 02:40:41;;;;;;;13.05;7.50;;;;;;;23.94;62.54;100249.97;5116568;28;20039;-78
2022/06/14 02:43:20;;;;;;;12.68;6.90;;;;;;;23.97;62.53;100260.53;5116781;28;20035;-78
2022/06/14 02:45:52;;;;;;;12.18;7.32;;;;;;;23.98;62.36;100259.44;5116547;28;20022;-78
2022/06/14 02:48:39;;;;;;;11.25;8.10;;;;;;;24.02;61.93;100266.19;5116466;28;20027;-78
2022/06/14 02:51:17;;;;;;;9.32;7.53;;;;;;;24.02;62.15;100268.94;5116470;28;20034;-79
2022/06/14 02:53:51;;;;;;;14.02;7.55;;;;;;;24.06;62.33;100275.69;5116279;28;20023;-78
2022/06/14 02:56:27;;;;;;;12.82;7.65;;;;;;;24.01;62.03;100276.31;5116822;28;20112;-78
2022/06/14 02:59:14;;;;;;;15.80;7.78;;;;;;;24.03;62.58;100276.13;5116915;28;20181;-79
2022/06/14 03:01:49;;;;;;;20.85;7.93;;;;;;;24.05;62.28;100271.22;5116789;28;20051;-77
2022/06/14 03:04:26;;;;;;;10.30;7.40;;;;;;;24.01;62.03;100268.09;5117292;28;20030;-78
2022/06/14 03:07:03;;;;;;;11.13;7.80;;;;;;;24.09;61.64;100280.72;5116653;28;20019;-78
2022/06/14 03:09:32;;;;;;;12.85;8.07;;;;;;;24.02;61.47;100272.53;5098007;28;20030;-79
2022/06/14 03:12:05;;;;;;;11.15;8.18;;;;;;;24.04;61.10;100281.38;5116073;28;20023;-77
2022/06/14 03:14:48;;;;;;;14.77;7.90;;;;;;;24.01;61.13;100279.06;5116066;28;20054;-79
2022/06/14 03:17:19;;;;;;;;;;;;;;;24.08;60.70;100284.53;5116780;28;20114;-76
2022/06/14 03:20:04;;;;;;;16.65;7.75;;;;;;;23.96;60.98;100267.06;5115542;28;19915;-79
2022/06/14 03:22:55;;;;;;;12.77;7.38;;;;;;;24.06;60.90;100281.19;5115998;28;20023;-81
2022/06/14 03:25:24;;;;;;;15.85;7.82;;;;;;;24.09;61.18;100284.31;5116462;28;20031;-79
2022/06/14 03:28:03;;;;;;;23.30;8.38;;;;;;;24.14;61.07;100280.94;5116671;28;20488;-80
2022/06/14 03:30:43;;;;;;;14.32;7.10;;;;;;;24.19;60.90;100290.19;5116632;28;20020;-81
2022/06/14 03:33:24;;;;;;;12.27;8.48;;;;;;;24.18;62.64;100277.53;5116341;28;20055;-84
2022/06/14 03:35:53;;;;;;;17.25;9.27;;;;;;;24.22;62.36;100283.41;5114576;28;20503;-81
2022/06/14 03:38:53;;;;;;;13.98;9.30;;;;;;;24.15;63.08;100293.63;5116181;28;20023;-78
2022/06/14 03:41:22;;;;;;;16.23;9.25;;;;;;;24.15;62.93;100293.63;5098066;28;20046;-78
2022/06/14 03:43:49;;;;;;;21.30;9.57;;;;;;;24.11;64.25;100292.38;5116794;28;20032;-79
2022/06/14 03:46:21;;;;;;;12.88;8.73;;;;;;;24.18;65.08;100293.19;5116950;28;20032;-82
2022/06/14 03:48:50;;;;;;;12.45;8.60;;;;;;;24.21;64.36;100293.59;5117541;28;20123;-85
2022/06/14 03:51:25;;;;;;;13.93;9.32;;;;;;;24.29;63.73;100295.19;5116555;28;20492;-81
2022/06/14 03:54:15;;;;;;;13.07;8.05;;;;;;;24.34;63.44;100292.66;5117552;28;20466;-85
2022/06/14 03:56:53;;;;;;;22.05;8.38;;;;;;;24.36;63.20;100298.75;5116646;28;20092;-81
2022/06/14 03:59:49;;;;;;;16.48;8.68;;;;;;;24.42;63.23;100300.63;5097435;28;20030;-82
2022/06/14 04:02:52;;;;;;;13.90;7.57;;;;;;;24.47;62.88;100291.69;5097968;28;20031;-81
2022/06/14 04:05:23;;;;;;;24.00;7.65;;;;;;;24.48;62.92;100280.47;5116261;28;20178;-83
2022/06/14 04:07:59;;;;;;;10.45;6.78;;;;;;;24.56;62.51;100285.69;5116313;28;20041;-81
2022/06/14 04:10:25;;;;;;;14.25;7.35;;;;;;;24.55;62.83;100292.28;5097596;28;20028;-83
2022/06/14 04:13:36;;;;;;;12.85;7.07;;;;;;;24.62;62.65;100290.28;5097392;28;20465;-84
2022/06/14 04:16:12;;;;;;;12.70;7.22;;;;;;;24.50;62.85;100281.09;5093657;28;20059;-84
2022/06/14 04:18:57;;;;;;;11.10;7.15;;;;;;;24.65;62.03;100295.34;5114419;28;20035;-84
2022/06/14 04:21:31;;;;;;;10.90;7.15;;;;;;;24.68;62.01;100302.31;5096567;28;20027;-83
2022/06/14 04:24:27;;;;;;;8.30;6.88;;;;;;;24.64;62.02;100301.94;5114763;28;20051;-83
2022/06/14 04:27:01;;;;;;;13.93;7.78;;;;;;;24.59;62.30;100301.75;5114821;28;20397;-84
2022/06/14 04:29:35;;;;;;;13.35;8.38;;;;;;;24.53;62.42;100301.78;5114547;28;20485;-84
2022/06/14 04:32:10;;;;;;;13.52;7.07;;;;;;;24.69;62.12;100312.25;5114766;28;20038;-83
2022/06/14 04:34:44;;;;;;;12.20;6.65;;;;;;;24.63;62.08;100308.50;5096151;28;20055;-84
2022/06/14 04:37:18;;;;;;;10.93;6.53;;;;;;;24.74;62.12;100318.75;5114598;28;20489;-84
2022/06/14 04:39:49;;;;;;;12.63;6.90;;;;;;;24.74;62.34;100327.00;5114527;28;20057;-84
2022/06/14 04:42:33;;;;;;;25.38;7.45;;;;;;;24.84;62.53;100332.88;5114771;28;20137;-83
2022/06/14 04:45:21;;;;;;;9.80;6.40;;;;;;;24.92;62.76;100340.84;5114334;28;20027;-83
2022/06/14 04:47:55;;;;;;;13.43;7.75;;;;;;;24.96;62.44;100338.50;5114483;28;20024;-83
2022/06/14 04:50:23;;;;;;;14.18;8.27;;;;;;;25.05;62.57;100348.16;5114455;28;20039;-83
2022/06/14 04:52:57;;;;;;;19.20;8.85;;;;;;;25.13;62.54;100347.03;5114440;28;20089;-83
2022/06/14 04:55:32;;;;;;;17.40;9.15;;;;;;;25.12;62.20;100345.34;5114076;28;20023;-83
2022/06/14 04:58:06;;;;;;;22.65;10.82;;;;;;;25.07;62.14;100336.94;5114215;28;20020;-82
2022/06/14 05:00:40;;;;;;;24.90;9.77;;;;;;;25.18;62.30;100344.44;5113984;28;20027;-84
2022/06/14 05:03:30;;;;;;;13.57;9.05;;;;;;;25.15;62.53;100331.13;5114892;28;20034;-84
2022/06/14 05:06:12;;;;;;;28.55;9.45;;;;;;;25.27;62.65;100337.56;5114829;28;20055;-84
2022/06/14 05:08:46;;;;;;;19.23;9.90;;;;;;;25.31;62.52;100344.31;5114943;28;20023;-83
2022/06/14 05:11:25;;;;;;;14.25;8.40;;;;;;;25.32;62.51;100341.31;5114241;28;20106;-84
2022/06/14 05:13:50;;;;;;;17.65;9.90;;;;;;;25.45;62.62;100345.84;5113622;28;20027;-84
2022/06/14 05:16:37;;;;;;;18.00;8.93;;;;;;;25.54;62.50;100361.03;5113661;28;20032;-85
2022/06/14 05:19:15;;;;;;;14.90;9.48;;;;;;;25.57;62.56;100344.03;5113527;28;20131;-83
2022/06/14 05:21:50;;;;;;;27.48;10.23;;;;;;;25.66;62.49;100363.84;5095033;28;20047;-83
2022/06/14 05:24:17;;;;;;;16.17;9.50;;;;;;;25.60;62.35;100343.59;5114035;28;20038;-84
2022/06/14 05:26:57;;;;;;;20.33;10.55;;;;;;;25.70;62.50;100365.94;5096189;28;20039;-83
2022/06/14 05:29:31;;;;;;;25.83;11.00;;;;;;;25.73;62.51;100361.88;5114315;28;20032;-83
2022/06/14 05:32:07;;;;;;;21.00;11.05;;;;;;;25.77;62.37;100372.22;5113875;28;20028;-83
2022/06/14 05:34:54;;;;;;;21.17;10.38;;;;;;;25.81;62.48;100370.66;5113962;28;20466;-85
2022/06/14 05:37:19;;;;;;;20.15;11.07;;;;;;;25.86;62.91;100376.34;5114040;28;20071;-82
2022/06/14 05:39:57;;;;;;;42.88;14.20;;;;;;;25.83;63.18;100376.81;5095412;28;20031;-82
2022/06/14 05:42:29;;;;;;;20.13;11.80;;;;;;;25.78;63.00;100373.88;5113805;28;20031;-82
2022/06/14 05:44:57;;;;;;;;;;;;;;;25.83;62.70;100382.31;5113799;28;20056;-82
2022/06/14 05:47:29;;;;;;;26.50;11.80;;;;;;;25.89;62.79;100378.66;5113258;28;19919;-82
2022/06/14 05:50:00;;;;;;;24.05;11.88;;;;;;;25.99;62.71;100378.94;5113799;28;20035;-85
2022/06/14 05:52:55;;;;;;;20.65;10.18;;;;;;;26.07;62.33;100368.66;5113649;28;20031;-82
2022/06/14 05:55:37;;;;;;;25.77;10.52;;;;;;;26.08;62.41;100362.09;5113703;28;20035;-81
2022/06/14 05:58:17;;;;;;;22.30;12.05;;;;;;;26.18;62.43;100370.66;5114140;28;20023;-81
2022/06/14 06:00:47;;;;;;;21.02;11.32;;;;;;;26.29;62.22;100375.41;5112806;28;20413;-81
2022/06/14 06:03:22;;;;;;;20.08;10.10;;;;;;;26.39;61.79;100375.69;5113241;28;20050;-83
2022/06/14 06:05:59;;;;;;;26.95;11.40;;;;;;;26.40;61.69;100366.31;5113384;28;20019;-81
2022/06/14 06:09:01;;;;;;;21.00;11.02;;;;;;;26.51;60.96;100368.31;5113588;28;20368;-81
2022/06/14 06:12:01;;;;;;;30.90;12.77;;;;;;;26.55;61.09;100377.78;5114015;28;20016;-80
2022/06/14 06:14:37;;;;;;;30.70;12.65;;;;;;;26.62;61.63;100380.44;5114079;28;20026;-81
2022/06/14 06:17:21;;;;;;;19.80;12.05;;;;;;;26.70;60.88;100380.94;5114166;28;20016;-81
2022/06/14 06:20:09;;;;;;;21.85;10.20;;;;;;;26.83;60.52;100386.28;5113455;28;20027;-82
2022/06/14 06:22:52;;;;;;;20.30;11.10;;;;;;;26.90;60.80;100383.44;5113831;28;20043;-81
2022/06/14 06:25:27;;;;;;;;;;;;;;;27.03;60.13;100388.75;5113410;28;20088;-82
2022/06/14 06:28:06;;;;;;;25.88;11.55;;;;;;;27.01;59.60;100369.63;5113426;28;19907;-81
2022/06/14 06:30:38;;;;;;;21.88;10.50;;;;;;;27.08;59.26;100388.00;5113450;28;20488;-81
2022/06/14 06:33:06;;;;;;;14.35;9.55;;;;;;;27.09;58.62;100386.94;5113783;28;20412;-82
2022/06/14 06:35:41;;;;;;;23.05;9.35;;;;;;;27.29;58.17;100381.91;5113579;28;20048;-82
2022/06/14 06:38:25;;;;;;;15.85;8.02;;;;;;;27.41;57.51;100375.28;5113110;28;20035;-82
2022/06/14 06:43:46;;;;;;;12.23;7.28;;;;;;;27.73;55.22;100372.19;5113373;28;20062;-83
2022/06/14 06:46:16;;;;;;;11.98;6.80;;;;;;;27.90;55.43;100373.94;5112995;28;20454;-82
2022/06/14 06:48:49;;;;;;;10.00;7.72;;;;;;;28.03;55.62;100384.72;5113503;28;20068;-82
2022/06/14 06:51:22;;;;;;;9.82;7.28;;;;;;;28.05;56.20;100385.34;5112766;28;20164;-82
2022/06/14 06:54:04;;;;;;;14.95;7.65;;;;;;;28.00;56.55;100382.47;5113002;28;20023;-80
2022/06/14 06:56:37;;;;;;;18.02;7.53;;;;;;;28.02;56.92;100387.72;5112682;28;20012;-82
2022/06/14 06:59:30;;;;;;;14.38;9.55;;;;;;;28.15;57.07;100386.66;5112947;28;20027;-82
2022/06/14 07:02:01;;;;;;;16.40;8.15;;;;;;;28.18;57.18;100387.00;5113128;28;20064;-82
2022/06/14 07:07:22;;;;;;;17.15;7.38;;;;;;;28.34;56.21;100393.69;5113171;28;20076;-82
2022/06/14 07:09:56;;;;;;;10.38;8.05;;;;;;;28.34;56.15;100385.38;5112971;28;20024;-84
2022/06/14 07:12:42;;;;;;;25.67;7.93;;;;;;;28.38;56.20;100390.16;5115354;28;20020;-84
2022/06/14 07:15:24;;;;;;;103.85;17.05;;;;;;;28.43;56.60;100393.03;5116636;28;20565;-83
2022/06/14 07:18:03;;;;;;;;;;;;;;;28.54;56.31;100391.28;5116941;28;20020;-83
2022/06/14 07:20:48;;;;;;;11.35;6.95;;;;;;;28.51;55.35;100389.88;5116223;28;19919;-82
2022/06/14 07:23:42;;;;;;;12.57;7.28;;;;;;;28.52;54.83;100393.47;5115699;28;20020;-83
2022/06/14 07:26:23;;;;;;;17.77;7.03;;;;;;;28.54;55.26;100399.59;5115951;28;20024;-83
2022/06/14 07:29:04;;;;;;;13.85;6.68;;;;;;;28.59;54.44;100399.72;5116457;28;20400;-83
2022/06/14 07:31:46;;;;;;;12.80;6.93;;;;;;;28.60;54.37;100399.44;5116769;28;20106;-83
2022/06/14 07:34:14;;;;;;;;;;;;;;;28.70;53.70;100407.13;5118122;28;20110;-82
2022/06/14 07:36:58;;;;;;;24.60;7.15;;;;;;;28.71;52.95;100414.38;5104400;28;20042;-82
2022/06/14 07:39:46;;;;;;;9.57;6.03;;;;;;;28.66;52.94;100407.88;5122647;28;20106;-82
2022/06/14 07:42:17;;;;;;;11.73;6.90;;;;;;;28.72;52.13;100421.56;5107161;28;20469;-82
2022/06/14 07:45:10;;;;;;;14.23;7.27;;;;;;;28.73;53.06;100419.63;5123345;28;20020;-82
2022/06/14 07:48:07;;;;;;;10.32;6.00;;;;;;;28.78;53.79;100403.09;5122394;28;20023;-83
2022/06/14 07:50:52;;;;;;;11.20;6.03;;;;;;;28.93;52.86;100418.06;5118584;28;20058;-83
2022/06/14 07:53:31;;;;;;;8.43;5.95;;;;;;;29.00;53.30;100410.44;5116566;28;20409;-82
2022/06/14 07:56:09;;;;;;;8.80;5.30;;;;;;;29.10;52.18;100413.41;5117526;28;20032;-82
2022/06/14 07:58:44;;;;;;;10.90;6.53;;;;;;;29.20;51.61;100412.75;5098496;28;20472;-82
2022/06/14 08:01:16;;;;;;;12.50;5.90;;;;;;;29.22;51.79;100415.25;5097710;28;20493;-81
2022/06/14 08:03:59;;;;;;;12.90;5.68;;;;;;;29.30;50.86;100412.91;5115273;28;20137;-81
2022/06/14 08:06:28;;;;;;;8.60;5.85;;;;;;;29.41;51.62;100419.47;5115458;28;20015;-81
2022/06/14 08:09:01;;;;;;;8.85;5.85;;;;;;;29.53;51.23;100418.28;5114931;28;20153;-82
2022/06/14 08:11:51;;;;;;;11.60;5.13;;;;;;;29.57;50.99;100407.53;5115057;28;20024;-82
2022/06/14 08:14:56;;;;;;;14.80;5.78;;;;;;;29.60;48.55;100402.28;5115051;28;20023;-83
2022/06/14 08:17:45;;;;;;;14.52;5.78;;;;;;;29.66;47.20;100411.56;5069830;28;20047;-82
2022/06/14 08:20:22;;;;;;;6.82;5.50;;;;;;;29.65;47.94;100415.41;5115386;28;20504;-82
2022/06/14 08:22:54;;;;;;;7.60;4.95;;;;;;;29.68;47.77;100395.50;5115546;28;20072;-83
2022/06/14 08:25:28;;;;;;;14.18;5.65;;;;;;;29.76;48.30;100403.34;5115940;28;20038;-83
2022/06/14 08:28:15;;;;;;;13.68;5.47;;;;;;;29.81;48.73;100417.31;5115650;28;20049;-80
2022/06/14 08:31:12;;;;;;;13.00;5.20;;;;;;;29.80;47.70;100418.41;5096653;28;20051;-80
2022/06/14 08:33:50;;;;;;;13.23;5.78;;;;;;;29.67;47.64;100418.75;5113799;28;20024;-77
2022/06/14 08:36:31;;;;;;;8.98;4.68;;;;;;;29.60;46.35;100405.06;5113261;28;20185;-79
2022/06/14 08:39:05;;;;;;;8.48;5.10;;;;;;;29.61;46.28;100405.91;5113068;28;20028;-78
2022/06/14 08:41:53;;;;;;;6.80;3.90;;;;;;;29.67;46.94;100413.22;5113604;28;20030;-78
2022/06/14 08:44:25;;;;;;;9.02;4.93;;;;;;;29.76;47.77;100394.19;5113330;28;20020;-78
2022/06/14 08:47:17;;;;;;;10.65;5.28;;;;;;;29.87;47.59;100401.63;5113380;28;20027;-78
2022/06/14 08:49:56;;;;;;;9.27;5.38;;;;;;;29.95;48.19;100404.78;5113554;28;20019;-76
2022/06/14 08:52:43;;;;;;;8.23;4.72;;;;;;;30.08;47.40;100409.09;5113143;28;20034;-77
2022/06/14 08:55:14;;;;;;;13.88;4.35;;;;;;;30.09;47.97;100406.06;5113860;28;20468;-84
2022/06/14 08:57:58;;;;;;;6.60;4.78;;;;;;;30.16;47.92;100412.25;5113848;28;20024;-82
2022/06/14 09:00:57;;;;;;;15.73;4.90;;;;;;;30.15;48.51;100409.75;5113373;28;20023;-85
2022/06/14 09:03:50;;;;;;;9.48;4.78;;;;;;;30.24;46.94;100411.78;5080200;28;20028;-81
2022/06/14 09:06:27;;;;;;;10.65;4.90;;;;;;;30.31;47.37;100419.09;5114960;28;20027;-84
2022/06/14 09:09:30;;;;;;;11.25;4.80;;;;;;;30.36;47.69;100421.94;5095853;28;20409;-81
2022/06/14 09:12:17;;;;;;;10.93;5.30;;;;;;;30.36;46.60;100421.94;5113408;28;20461;-84
2022/06/14 09:14:52;;;;;;;6.55;5.13;;;;;;;30.41;47.49;100431.19;5129824;27;20023;-82
2022/06/14 09:17:29;;;;;;;12.27;5.40;;;;;;;30.43;48.15;100431.75;5095153;28;20508;-83
2022/06/14 09:20:03;;;;;;;28.88;7.85;;;;;;;30.56;48.14;100427.75;5113413;28;20047;-82
2022/06/14 09:22:47;;;;;;;14.05;5.15;;;;;;;30.64;47.34;100438.41;5113424;28;20019;-83
2022/06/14 09:25:59;;;;;;;7.90;5.10;;;;;;;30.66;47.57;100430.63;5112572;28;20103;-82
2022/06/14 09:28:52;;;;;;;5.03;4.17;;;;;;;30.61;46.11;100430.59;5088596;28;20477;-82
2022/06/14 09:31:47;;;;;;;15.32;4.38;;;;;;;30.66;45.94;100433.41;5114108;28;20031;-82
2022/06/14 09:35:06;;;;;;;5.22;4.25;;;;;;;30.64;46.37;100418.97;5112188;28;20023;-82
2022/06/14 09:38:08;;;;;;;9.18;4.70;;;;;;;30.67;47.01;100429.56;5030979;28;20042;-86
2022/06/14 09:40:55;;;;;;;9.50;5.45;;;;;;;30.68;47.42;100431.22;5000556;28;20051;-83
2022/06/14 09:43:58;;;;;;;9.43;4.75;;;;;;;30.69;48.08;100421.78;5083587;28;20046;-83
2022/06/14 09:46:23;;;;;;;;;;;;;;;30.79;47.73;100421.91;5075849;28;20028;-82
2022/06/14 09:48:58;;;;;;;7.97;5.20;;;;;;;30.82;46.94;100426.94;5114506;28;19907;-82
2022/06/14 09:51:41;;;;;;;8.43;4.97;;;;;;;30.85;46.33;100431.97;5094900;28;20280;-82
2022/06/14 09:54:38;;;;;;;11.35;5.20;;;;;;;30.89;46.20;100435.88;5113381;28;20084;-83
2022/06/14 09:57:35;;;;;;;6.80;4.47;;;;;;;30.86;45.44;100433.63;5094979;28;20396;-83
2022/06/14 10:00:13;;;;;;;15.82;5.90;;;;;;;30.84;46.20;100430.28;5113258;28;20033;-82
2022/06/14 10:03:09;;;;;;;5.70;5.03;;;;;;;30.92;46.68;100429.78;5113799;28;20072;-82
2022/06/14 10:06:05;;;;;;;13.88;4.45;;;;;;;31.09;46.66;100422.22;5113731;28;20059;-83
2022/06/14 10:08:45;;;;;;;7.03;4.30;;;;;;;31.18;45.71;100419.78;5113456;28;20031;-83
2022/06/14 10:11:46;;;;;;;15.52;5.47;;;;;;;31.33;44.77;100427.41;5113678;28;20032;-83
2022/06/14 10:14:26;;;;;;;12.98;4.82;;;;;;;31.42;45.19;100417.47;5044415;28;20040;-84
2022/06/14 10:16:54;;;;;;;7.65;4.38;;;;;;;31.46;44.37;100426.97;5113028;28;20485;-83
2022/06/14 10:19:37;;;;;;;15.18;5.57;;;;;;;31.48;44.73;100406.13;5113699;28;20118;-83
2022/06/14 10:22:24;;;;;;;8.43;4.43;;;;;;;31.60;43.99;100411.50;5113291;28;20059;-84
2022/06/14 10:24:53;;;;;;;11.80;4.78;;;;;;;31.69;44.36;100407.97;5113507;28;20131;-82
2022/06/14 10:30:39;;;;;;;;;;;;;;;31.78;43.19;100391.59;5113490;28;20101;-83
2022/06/14 10:33:18;;;;;;;12.73;5.05;;;;;;;31.80;43.64;100400.53;5094606;28;20395;-83
2022/06/14 10:35:54;;;;;;;8.45;4.80;;;;;;;31.94;43.23;100401.69;5113078;28;20048;-83
2022/06/14 10:38:43;;;;;;;16.52;4.95;;;;;;;32.08;42.52;100397.34;5112974;28;20042;-83
2022/06/14 10:41:42;;;;;;;5.45;4.10;;;;;;;32.13;41.28;100389.03;5112772;28;20378;-83
2022/06/14 10:44:20;;;;;;;7.85;4.50;;;;;;;32.09;42.08;100390.66;5095100;28;20035;-83
2022/06/14 10:47:21;;;;;;;8.75;4.78;;;;;;;32.02;41.88;100378.06;5116682;28;20102;-83
2022/06/14 10:50:05;;;;;;;5.90;4.47;;;;;;;32.17;42.26;100387.34;5116967;28;20565;-83
2022/06/14 10:52:52;;;;;;;10.70;4.50;;;;;;;32.24;41.80;100385.16;5117272;28;20024;-83
2022/06/14 10:55:27;;;;;;;5.80;4.07;;;;;;;32.20;40.85;100377.66;5098766;28;20047;-84
2022/06/14 10:58:31;;;;;;;5.57;4.70;;;;;;;32.20;41.73;100370.09;5098883;28;20015;-83
2022/06/14 11:01:20;;;;;;;6.90;4.68;;;;;;;32.33;41.63;100377.94;5117086;28;20106;-84
2022/06/14 11:04:23;;;;;;;6.55;4.97;;;;;;;32.46;41.08;100368.25;5116845;28;20019;-82
2022/06/14 11:06:54;;;;;;;8.85;4.65;;;;;;;32.58;40.97;100368.00;5116413;28;20027;-83
2022/06/14 11:09:41;;;;;;;8.10;5.30;;;;;;;32.57;41.12;100360.78;5116727;28;20030;-81
2022/06/14 11:12:40;;;;;;;14.05;5.20;;;;;;;32.61;39.96;100370.25;5116422;28;20019;-83
2022/06/14 11:15:20;;;;;;;9.90;5.68;;;;;;;32.59;40.91;100362.19;5116421;28;20031;-82
2022/06/14 11:18:06;;;;;;;11.63;5.68;;;;;;;32.70;41.67;100361.06;5116737;28;20599;-82
2022/06/14 11:21:03;;;;;;;22.48;6.13;;;;;;;32.72;40.95;100350.47;5116072;28;20489;-83
2022/06/14 11:23:54;;;;;;;9.93;5.47;;;;;;;32.63;40.16;100348.53;5116126;28;20107;-83
2022/06/14 11:26:38;;;;;;;8.30;4.68;;;;;;;32.69;39.48;100353.00;5116736;28;20137;-83
2022/06/14 11:29:24;;;;;;;14.82;5.03;;;;;;;32.74;39.60;100334.34;5116090;28;20024;-83
2022/06/14 11:32:26;;;;;;;8.00;4.10;;;;;;;32.78;39.33;100334.63;5117042;28;20030;-83
2022/06/14 11:35:06;;;;;;;5.85;4.40;;;;;;;32.78;40.55;100329.06;5115860;28;20102;-83
2022/06/14 11:37:35;;;;;;;10.52;5.47;;;;;;;32.92;40.57;100335.75;5116061;28;20055;-83
2022/06/14 11:40:12;;;;;;;6.78;4.60;;;;;;;33.01;39.86;100322.06;5115841;28;20035;-83
2022/06/14 11:42:46;;;;;;;12.65;5.45;;;;;;;33.20;40.23;100321.25;5115923;28;20027;-82
2022/06/14 11:45:30;;;;;;;10.35;5.03;;;;;;;33.33;39.91;100326.22;5116085;28;20030;-82
2022/06/14 11:48:07;;;;;;;10.63;4.88;;;;;;;33.33;39.83;100317.88;5115698;28;20072;-82
2022/06/14 11:50:44;;;;;;;9.70;4.97;;;;;;;33.45;38.54;100316.75;5116285;28;20110;-83
2022/06/14 11:53:18;;;;;;;13.15;6.13;;;;;;;33.46;38.83;100312.81;5096983;28;20392;-83
2022/06/14 11:55:51;;;;;;;29.77;6.97;;;;;;;33.64;39.21;100312.25;5115586;28;20563;-85
2022/06/14 11:58:20;;;;;;;11.68;5.72;;;;;;;33.73;39.49;100316.13;5114614;28;20032;-83
2022/06/14 12:00:57;;;;;;;18.98;6.90;;;;;;;33.79;39.05;100307.44;5115274;28;20020;-83
2022/06/14 12:03:55;;;;;;;4.97;4.47;;;;;;;33.91;38.60;100310.72;5114190;28;20397;-83
2022/06/14 12:06:58;;;;;;;15.68;5.68;;;;;;;33.95;37.71;100299.84;5070094;28;20039;-82
2022/06/14 12:10:04;;;;;;;12.38;4.40;;;;;;;33.90;36.28;100309.09;5079175;28;20062;-82
2022/06/14 12:13:01;;;;;;;4.53;3.90;;;;;;;33.75;35.20;100311.94;5096007;28;20027;-82
2022/06/14 12:15:37;;;;;;;14.00;5.20;;;;;;;33.82;36.28;100331.16;5114682;28;20090;-82
2022/06/14 12:18:07;;;;;;;6.50;4.32;;;;;;;33.76;36.20;100335.09;5114588;28;20111;-82
2022/06/14 12:20:45;;;;;;;11.60;4.28;;;;;;;33.78;36.79;100336.47;5114629;28;20028;-83
2022/06/14 12:23:18;;;;;;;11.23;5.10;;;;;;;33.77;37.06;100342.31;5114790;28;20124;-82
2022/06/14 12:29:01;;;;;;;9.15;6.63;;;;;;;33.92;37.76;100336.69;5114476;28;20105;-82
2022/06/14 12:31:41;;;;;;;15.13;6.85;;;;;;;33.90;38.14;100341.72;5114328;28;20034;-82
2022/06/14 12:34:18;;;;;;;16.27;6.97;;;;;;;33.88;38.16;100332.81;5114136;28;20070;-82